sensor_id;sensor_type;location;lat;lon;timestamp;temperature;humidity
3186;DHT22;1604;53.700;10.252;2023-12-20T00:00:34;5.30;99.90
3186;DHT22;1604;53.700;10.252;2023-12-20T00:03:38;5.20;99.90
3186;DHT22;1604;53.700;10.252;2023-12-20T00:06:39;5.10;99.90
3186;DHT22;1604;53.700;10.252;2023-12-20T00:09:41;5.10;99.90
3186;DHT22;1604;53.700;10.252;2023-12-20T00:12:43;5.10;99.90
3186;DHT22;1604;53.700;10.252;2023-12-20T00:15:45;5.00;99.90
3186;DHT22;1604;53.700;10.252;2023-12-20T00:18:48;5.00;99.90
3186;DHT22;1604;53.700;10.252;2023-12-20T00:21:50;4.90;99.90
3186;DHT22;1604;53.700;10.252;2023-12-20T00:24:52;4.90;99.90
3186;DHT22;1604;53.700;10.252;2023-12-20T00:27:54;4.90;99.90
3186;DHT22;1604;53.700;10.252;2023-12-20T00:30:56;4.80;99.90
3186;DHT22;1604;53.700;10.252;2023-12-20T00:33:59;4.80;99.90
3186;DHT22;1604;53.700;10.252;2023-12-20T00:37:01;4.90;99.90
3186;DHT22;1604;53.700;10.252;2023-12-20T00:40:04;4.80;99.90
3186;DHT22;1604;53.700;10.252;2023-12-20T00:43:06;4.80;99.90
3186;DHT22;1604;53.700;10.252;2023-12-20T00:46:08;4.80;99.90
3186;DHT22;1604;53.700;10.252;2023-12-20T00:49:11;4.80;99.90
3186;DHT22;1604;53.700;10.252;2023-12-20T00:52:13;4.80;99.90
3186;DHT22;1604;53.700;10.252;2023-12-20T00:55:15;4.80;99.90
3186;DHT22;1604;53.700;10.252;2023-12-20T00:58:17;4.80;99.90
3186;DHT22;1604;53.700;10.252;2023-12-20T01:01:19;4.90;99.90
3186;DHT22;1604;53.700;10.252;2023-12-20T01:04:22;4.90;99.90
3186;DHT22;1604;53.700;10.252;2023-12-20T01:07:24;4.90;99.90
3186;DHT22;1604;53.700;10.252;2023-12-20T01:10:26;4.90;99.90
3186;DHT22;1604;53.700;10.252;2023-12-20T01:13:28;4.90;99.90
3186;DHT22;1604;53.700;10.252;2023-12-20T01:16:30;4.90;99.90
3186;DHT22;1604;53.700;10.252;2023-12-20T01:19:33;5.00;99.90
3186;DHT22;1604;53.700;10.252;2023-12-20T01:22:35;5.00;99.90
3186;DHT22;1604;53.700;10.252;2023-12-20T01:25:37;5.00;99.90
3186;DHT22;1604;53.700;10.252;2023-12-20T01:28:39;5.00;99.90
3186;DHT22;1604;53.700;10.252;2023-12-20T01:31:41;5.00;99.90
3186;DHT22;1604;53.700;10.252;2023-12-20T01:34:44;5.00;99.90
3186;DHT22;1604;53.700;10.252;2023-12-20T01:37:46;5.00;99.90
3186;DHT22;1604;53.700;10.252;2023-12-20T01:40:48;5.00;99.90
3186;DHT22;1604;53.700;10.252;2023-12-20T01:43:50;4.90;99.90
3186;DHT22;1604;53.700;10.252;2023-12-20T01:46:53;5.00;99.90
3186;DHT22;1604;53.700;10.252;2023-12-20T01:49:57;5.00;99.90
3186;DHT22;1604;53.700;10.252;2023-12-20T01:53:00;4.90;99.90
3186;DHT22;1604;53.700;10.252;2023-12-20T01:56:03;4.90;99.90
3186;DHT22;1604;53.700;10.252;2023-12-20T01:59:06;4.90;99.90
3186;DHT22;1604;53.700;10.252;2023-12-20T02:02:09;4.90;99.90
3186;DHT22;1604;53.700;10.252;2023-12-20T02:05:14;4.90;99.90
3186;DHT22;1604;53.700;10.252;2023-12-20T02:08:16;4.90;99.90
3186;DHT22;1604;53.700;10.252;2023-12-20T02:11:18;4.90;99.90
3186;DHT22;1604;53.700;10.252;2023-12-20T02:14:20;5.00;99.90
3186;DHT22;1604;53.700;10.252;2023-12-20T02:17:22;5.00;99.90
3186;DHT22;1604;53.700;10.252;2023-12-20T02:20:26;5.00;99.90
3186;DHT22;1604;53.700;10.252;2023-12-20T02:23:29;5.00;99.90
3186;DHT22;1604;53.700;10.252;2023-12-20T02:26:32;5.00;99.90
3186;DHT22;1604;53.700;10.252;2023-12-20T02:29:35;5.00;99.90
3186;DHT22;1604;53.700;10.252;2023-12-20T02:32:37;5.00;99.90
3186;DHT22;1604;53.700;10.252;2023-12-20T02:35:39;5.10;99.90
3186;DHT22;1604;53.700;10.252;2023-12-20T02:38:42;5.10;99.90
3186;DHT22;1604;53.700;10.252;2023-12-20T02:41:44;5.10;99.90
3186;DHT22;1604;53.700;10.252;2023-12-20T02:44:46;5.10;99.90
3186;DHT22;1604;53.700;10.252;2023-12-20T02:47:48;5.10;99.90
3186;DHT22;1604;53.700;10.252;2023-12-20T02:50:50;5.20;99.90
3186;DHT22;1604;53.700;10.252;2023-12-20T02:53:54;5.20;99.90
3186;DHT22;1604;53.700;10.252;2023-12-20T02:56:56;5.20;99.90
3186;DHT22;1604;53.700;10.252;2023-12-20T02:59:58;5.20;99.90
3186;DHT22;1604;53.700;10.252;2023-12-20T03:03:03;5.30;99.90
3186;DHT22;1604;53.700;10.252;2023-12-20T03:06:05;5.30;99.90
3186;DHT22;1604;53.700;10.252;2023-12-20T03:09:09;5.30;99.90
3186;DHT22;1604;53.700;10.252;2023-12-20T03:12:11;5.20;99.90
3186;DHT22;1604;53.700;10.252;2023-12-20T03:15:12;5.20;99.90
3186;DHT22;1604;53.700;10.252;2023-12-20T03:18:15;5.30;99.90
3186;DHT22;1604;53.700;10.252;2023-12-20T03:21:17;5.30;99.90
3186;DHT22;1604;53.700;10.252;2023-12-20T03:24:21;5.30;99.90
3186;DHT22;1604;53.700;10.252;2023-12-20T03:27:22;5.30;99.90
3186;DHT22;1604;53.700;10.252;2023-12-20T03:30:24;5.30;99.90
3186;DHT22;1604;53.700;10.252;2023-12-20T03:33:26;5.30;99.90
3186;DHT22;1604;53.700;10.252;2023-12-20T03:36:28;5.30;99.90
3186;DHT22;1604;53.700;10.252;2023-12-20T03:39:31;5.30;99.90
3186;DHT22;1604;53.700;10.252;2023-12-20T03:42:36;5.30;99.90
3186;DHT22;1604;53.700;10.252;2023-12-20T03:45:38;5.30;99.90
3186;DHT22;1604;53.700;10.252;2023-12-20T03:48:40;5.30;99.90
3186;DHT22;1604;53.700;10.252;2023-12-20T03:51:41;5.40;99.90
3186;DHT22;1604;53.700;10.252;2023-12-20T03:54:45;5.40;99.90
3186;DHT22;1604;53.700;10.252;2023-12-20T03:57:47;5.40;99.90
3186;DHT22;1604;53.700;10.252;2023-12-20T04:00:48;5.30;99.90
3186;DHT22;1604;53.700;10.252;2023-12-20T04:03:50;5.30;99.90
3186;DHT22;1604;53.700;10.252;2023-12-20T04:06:52;5.30;99.90
3186;DHT22;1604;53.700;10.252;2023-12-20T04:09:55;5.30;99.90
3186;DHT22;1604;53.700;10.252;2023-12-20T04:12:57;5.30;99.90
3186;DHT22;1604;53.700;10.252;2023-12-20T04:15:59;5.30;99.90
3186;DHT22;1604;53.700;10.252;2023-12-20T04:19:01;5.30;99.90
3186;DHT22;1604;53.700;10.252;2023-12-20T04:22:03;5.30;99.90
3186;DHT22;1604;53.700;10.252;2023-12-20T04:25:08;5.30;99.90
3186;DHT22;1604;53.700;10.252;2023-12-20T04:28:10;5.30;99.90
3186;DHT22;1604;53.700;10.252;2023-12-20T04:31:12;5.20;99.90
3186;DHT22;1604;53.700;10.252;2023-12-20T04:34:14;5.30;99.90
3186;DHT22;1604;53.700;10.252;2023-12-20T04:37:16;5.30;99.90
3186;DHT22;1604;53.700;10.252;2023-12-20T04:40:19;5.30;99.90
3186;DHT22;1604;53.700;10.252;2023-12-20T04:43:21;5.30;99.90
3186;DHT22;1604;53.700;10.252;2023-12-20T04:46:23;5.30;99.90
3186;DHT22;1604;53.700;10.252;2023-12-20T04:49:25;5.30;99.90
3186;DHT22;1604;53.700;10.252;2023-12-20T04:52:26;5.30;99.90
3186;DHT22;1604;53.700;10.252;2023-12-20T04:55:30;5.30;99.90
3186;DHT22;1604;53.700;10.252;2023-12-20T04:58:32;5.40;99.90
3186;DHT22;1604;53.700;10.252;2023-12-20T05:01:33;5.40;99.90
3186;DHT22;1604;53.700;10.252;2023-12-20T05:04:35;5.40;99.90
3186;DHT22;1604;53.700;10.252;2023-12-20T05:07:37;5.40;99.90
3186;DHT22;1604;53.700;10.252;2023-12-20T05:10:41;5.40;99.90
3186;DHT22;1604;53.700;10.252;2023-12-20T05:13:42;5.30;99.90
3186;DHT22;1604;53.700;10.252;2023-12-20T05:16:44;5.40;99.90
3186;DHT22;1604;53.700;10.252;2023-12-20T05:19:46;5.40;99.90
3186;DHT22;1604;53.700;10.252;2023-12-20T05:22:48;5.40;99.90
3186;DHT22;1604;53.700;10.252;2023-12-20T05:25:51;5.50;99.90
3186;DHT22;1604;53.700;10.252;2023-12-20T05:28:54;5.40;99.90
3186;DHT22;1604;53.700;10.252;2023-12-20T05:31:57;5.40;99.90
3186;DHT22;1604;53.700;10.252;2023-12-20T05:34:59;5.50;99.90
3186;DHT22;1604;53.700;10.252;2023-12-20T05:38:01;5.50;99.90
3186;DHT22;1604;53.700;10.252;2023-12-20T05:41:05;5.60;99.90
3186;DHT22;1604;53.700;10.252;2023-12-20T05:44:06;5.60;99.90
3186;DHT22;1604;53.700;10.252;2023-12-20T05:47:09;5.60;99.90
3186;DHT22;1604;53.700;10.252;2023-12-20T05:50:11;5.60;99.90
3186;DHT22;1604;53.700;10.252;2023-12-20T05:53:12;5.60;99.90
3186;DHT22;1604;53.700;10.252;2023-12-20T05:56:16;5.60;99.90
3186;DHT22;1604;53.700;10.252;2023-12-20T05:59:18;5.60;99.90
3186;DHT22;1604;53.700;10.252;2023-12-20T06:02:20;5.60;99.90
3186;DHT22;1604;53.700;10.252;2023-12-20T06:05:21;5.60;99.90
3186;DHT22;1604;53.700;10.252;2023-12-20T06:08:23;5.50;99.90
3186;DHT22;1604;53.700;10.252;2023-12-20T06:11:27;5.50;99.90
3186;DHT22;1604;53.700;10.252;2023-12-20T06:14:29;5.60;99.90
3186;DHT22;1604;53.700;10.252;2023-12-20T06:17:31;5.50;99.90
3186;DHT22;1604;53.700;10.252;2023-12-20T06:20:33;5.50;99.90
3186;DHT22;1604;53.700;10.252;2023-12-20T06:23:35;5.50;99.90
3186;DHT22;1604;53.700;10.252;2023-12-20T06:26:38;5.50;99.90
3186;DHT22;1604;53.700;10.252;2023-12-20T06:29:40;5.50;99.90
3186;DHT22;1604;53.700;10.252;2023-12-20T06:32:44;5.50;99.90
3186;DHT22;1604;53.700;10.252;2023-12-20T06:35:47;5.40;99.90
3186;DHT22;1604;53.700;10.252;2023-12-20T06:38:49;5.40;99.90
3186;DHT22;1604;53.700;10.252;2023-12-20T06:41:53;5.30;99.90
3186;DHT22;1604;53.700;10.252;2023-12-20T06:44:54;5.40;99.90
3186;DHT22;1604;53.700;10.252;2023-12-20T06:47:56;5.40;99.90
3186;DHT22;1604;53.700;10.252;2023-12-20T06:51:00;5.50;99.90
3186;DHT22;1604;53.700;10.252;2023-12-20T06:54:02;5.40;99.90
3186;DHT22;1604;53.700;10.252;2023-12-20T06:57:06;5.60;99.90
3186;DHT22;1604;53.700;10.252;2023-12-20T07:00:10;5.60;99.90
3186;DHT22;1604;53.700;10.252;2023-12-20T07:03:12;5.60;99.90
3186;DHT22;1604;53.700;10.252;2023-12-20T07:06:14;5.60;99.90
3186;DHT22;1604;53.700;10.252;2023-12-20T07:09:17;5.60;99.90
3186;DHT22;1604;53.700;10.252;2023-12-20T07:12:21;5.60;99.90
3186;DHT22;1604;53.700;10.252;2023-12-20T07:15:23;5.60;99.90
3186;DHT22;1604;53.700;10.252;2023-12-20T07:18:24;5.60;99.90
3186;DHT22;1604;53.700;10.252;2023-12-20T07:21:26;5.60;99.90
3186;DHT22;1604;53.700;10.252;2023-12-20T07:24:28;5.60;99.90
3186;DHT22;1604;53.700;10.252;2023-12-20T07:27:31;5.60;99.90
3186;DHT22;1604;53.700;10.252;2023-12-20T07:30:33;5.60;99.90
3186;DHT22;1604;53.700;10.252;2023-12-20T07:33:35;5.60;99.90
3186;DHT22;1604;53.700;10.252;2023-12-20T07:36:37;5.70;99.90
3186;DHT22;1604;53.700;10.252;2023-12-20T07:39:39;5.70;99.90
3186;DHT22;1604;53.700;10.252;2023-12-20T07:42:43;5.70;99.90
3186;DHT22;1604;53.700;10.252;2023-12-20T07:45:45;5.70;99.90
3186;DHT22;1604;53.700;10.252;2023-12-20T07:48:47;5.60;99.90
3186;DHT22;1604;53.700;10.252;2023-12-20T07:51:49;5.60;99.90
3186;DHT22;1604;53.700;10.252;2023-12-20T07:54:51;5.60;99.90
3186;DHT22;1604;53.700;10.252;2023-12-20T07:57:54;5.70;99.90
3186;DHT22;1604;53.700;10.252;2023-12-20T08:00:56;5.70;99.90
3186;DHT22;1604;53.700;10.252;2023-12-20T08:03:58;5.70;99.90
3186;DHT22;1604;53.700;10.252;2023-12-20T08:07:00;5.70;99.90
3186;DHT22;1604;53.700;10.252;2023-12-20T08:10:02;5.70;99.90
3186;DHT22;1604;53.700;10.252;2023-12-20T08:13:05;5.70;99.90
3186;DHT22;1604;53.700;10.252;2023-12-20T08:16:07;5.80;99.90
3186;DHT22;1604;53.700;10.252;2023-12-20T08:19:09;5.80;99.90
3186;DHT22;1604;53.700;10.252;2023-12-20T08:22:11;5.80;99.90
3186;DHT22;1604;53.700;10.252;2023-12-20T08:25:14;5.80;99.90
3186;DHT22;1604;53.700;10.252;2023-12-20T08:28:17;5.80;99.90
3186;DHT22;1604;53.700;10.252;2023-12-20T08:31:19;5.90;99.90
3186;DHT22;1604;53.700;10.252;2023-12-20T08:34:21;6.00;99.90
3186;DHT22;1604;53.700;10.252;2023-12-20T08:37:24;6.00;99.90
3186;DHT22;1604;53.700;10.252;2023-12-20T08:40:26;6.00;99.90
3186;DHT22;1604;53.700;10.252;2023-12-20T08:43:29;6.00;99.90
3186;DHT22;1604;53.700;10.252;2023-12-20T08:46:31;6.00;99.90
3186;DHT22;1604;53.700;10.252;2023-12-20T08:49:33;6.10;99.90
3186;DHT22;1604;53.700;10.252;2023-12-20T08:52:35;6.10;99.90
3186;DHT22;1604;53.700;10.252;2023-12-20T08:55:37;6.20;99.90
3186;DHT22;1604;53.700;10.252;2023-12-20T08:58:40;6.20;99.90
3186;DHT22;1604;53.700;10.252;2023-12-20T09:01:42;6.20;99.90
3186;DHT22;1604;53.700;10.252;2023-12-20T09:04:44;6.30;99.90
3186;DHT22;1604;53.700;10.252;2023-12-20T09:07:46;6.30;99.90
3186;DHT22;1604;53.700;10.252;2023-12-20T09:10:48;6.30;99.90
3186;DHT22;1604;53.700;10.252;2023-12-20T09:13:51;6.30;99.90
3186;DHT22;1604;53.700;10.252;2023-12-20T09:16:53;6.20;99.90
3186;DHT22;1604;53.700;10.252;2023-12-20T09:19:56;6.20;99.90
3186;DHT22;1604;53.700;10.252;2023-12-20T09:23:00;6.20;99.90
3186;DHT22;1604;53.700;10.252;2023-12-20T09:26:02;6.10;99.90
3186;DHT22;1604;53.700;10.252;2023-12-20T09:29:05;6.00;99.90
3186;DHT22;1604;53.700;10.252;2023-12-20T09:32:08;5.90;99.90
3186;DHT22;1604;53.700;10.252;2023-12-20T09:35:10;5.80;99.90
3186;DHT22;1604;53.700;10.252;2023-12-20T09:38:12;5.80;99.90
3186;DHT22;1604;53.700;10.252;2023-12-20T09:41:16;5.70;99.90
3186;DHT22;1604;53.700;10.252;2023-12-20T09:44:19;5.70;99.90
3186;DHT22;1604;53.700;10.252;2023-12-20T09:47:23;5.70;99.90
3186;DHT22;1604;53.700;10.252;2023-12-20T09:50:26;5.70;99.90
3186;DHT22;1604;53.700;10.252;2023-12-20T09:53:29;5.60;99.90
3186;DHT22;1604;53.700;10.252;2023-12-20T09:56:31;5.60;99.90
3186;DHT22;1604;53.700;10.252;2023-12-20T09:59:35;5.50;99.90
3186;DHT22;1604;53.700;10.252;2023-12-20T10:02:39;5.50;99.90
3186;DHT22;1604;53.700;10.252;2023-12-20T10:05:43;5.40;99.90
3186;DHT22;1604;53.700;10.252;2023-12-20T10:08:46;5.30;99.90
3186;DHT22;1604;53.700;10.252;2023-12-20T10:11:48;5.40;99.90
3186;DHT22;1604;53.700;10.252;2023-12-20T10:14:51;5.20;99.90
3186;DHT22;1604;53.700;10.252;2023-12-20T10:17:53;5.30;99.90
3186;DHT22;1604;53.700;10.252;2023-12-20T10:20:55;5.20;99.90
3186;DHT22;1604;53.700;10.252;2023-12-20T10:23:58;5.20;99.90
3186;DHT22;1604;53.700;10.252;2023-12-20T10:27:03;5.30;99.90
3186;DHT22;1604;53.700;10.252;2023-12-20T10:30:08;5.30;99.90
3186;DHT22;1604;53.700;10.252;2023-12-20T10:33:10;5.30;99.90
3186;DHT22;1604;53.700;10.252;2023-12-20T10:36:12;5.40;99.90
3186;DHT22;1604;53.700;10.252;2023-12-20T10:39:15;5.30;99.90
3186;DHT22;1604;53.700;10.252;2023-12-20T10:42:17;5.30;99.90
3186;DHT22;1604;53.700;10.252;2023-12-20T10:45:21;5.30;99.90
3186;DHT22;1604;53.700;10.252;2023-12-20T10:48:25;5.30;99.90
3186;DHT22;1604;53.700;10.252;2023-12-20T10:51:30;5.30;99.90
3186;DHT22;1604;53.700;10.252;2023-12-20T10:54:33;5.30;99.90
3186;DHT22;1604;53.700;10.252;2023-12-20T10:57:36;5.30;99.90
3186;DHT22;1604;53.700;10.252;2023-12-20T11:00:40;5.30;99.90
3186;DHT22;1604;53.700;10.252;2023-12-20T11:03:48;5.30;99.90
3186;DHT22;1604;53.700;10.252;2023-12-20T11:06:54;5.30;99.90
3186;DHT22;1604;53.700;10.252;2023-12-20T11:10:00;5.30;99.90
3186;DHT22;1604;53.700;10.252;2023-12-20T11:13:08;5.30;99.90
3186;DHT22;1604;53.700;10.252;2023-12-20T11:16:13;5.30;99.90
3186;DHT22;1604;53.700;10.252;2023-12-20T11:19:16;5.20;99.90
3186;DHT22;1604;53.700;10.252;2023-12-20T11:22:19;5.10;99.90
3186;DHT22;1604;53.700;10.252;2023-12-20T11:25:21;5.10;99.90
3186;DHT22;1604;53.700;10.252;2023-12-20T11:28:26;5.00;99.90
3186;DHT22;1604;53.700;10.252;2023-12-20T11:31:40;5.00;99.90
3186;DHT22;1604;53.700;10.252;2023-12-20T11:34:42;4.90;99.90
3186;DHT22;1604;53.700;10.252;2023-12-20T11:37:43;4.90;99.90
3186;DHT22;1604;53.700;10.252;2023-12-20T11:40:48;4.90;99.90
3186;DHT22;1604;53.700;10.252;2023-12-20T11:43:53;4.90;99.90
3186;DHT22;1604;53.700;10.252;2023-12-20T11:46:56;4.80;99.90
3186;DHT22;1604;53.700;10.252;2023-12-20T11:49:58;4.80;99.90
3186;DHT22;1604;53.700;10.252;2023-12-20T11:53:01;4.90;99.90
3186;DHT22;1604;53.700;10.252;2023-12-20T11:56:03;5.00;99.90
3186;DHT22;1604;53.700;10.252;2023-12-20T11:59:07;5.10;99.90
3186;DHT22;1604;53.700;10.252;2023-12-20T12:02:11;5.20;99.90
3186;DHT22;1604;53.700;10.252;2023-12-20T12:05:14;5.20;99.90
3186;DHT22;1604;53.700;10.252;2023-12-20T12:08:16;5.20;99.90
3186;DHT22;1604;53.700;10.252;2023-12-20T12:11:18;5.30;99.90
3186;DHT22;1604;53.700;10.252;2023-12-20T12:14:20;5.40;99.90
3186;DHT22;1604;53.700;10.252;2023-12-20T12:17:24;5.40;99.90
3186;DHT22;1604;53.700;10.252;2023-12-20T12:20:26;5.40;99.90
3186;DHT22;1604;53.700;10.252;2023-12-20T12:23:28;5.40;99.90
3186;DHT22;1604;53.700;10.252;2023-12-20T12:26:30;5.30;99.90
3186;DHT22;1604;53.700;10.252;2023-12-20T12:29:32;5.30;99.90
3186;DHT22;1604;53.700;10.252;2023-12-20T12:32:36;5.40;99.90
3186;DHT22;1604;53.700;10.252;2023-12-20T12:35:38;5.40;99.90
3186;DHT22;1604;53.700;10.252;2023-12-20T12:38:41;5.50;99.90
3186;DHT22;1604;53.700;10.252;2023-12-20T12:41:43;5.60;99.90
3186;DHT22;1604;53.700;10.252;2023-12-20T12:44:45;5.60;99.90
3186;DHT22;1604;53.700;10.252;2023-12-20T12:47:48;5.60;99.90
3186;DHT22;1604;53.700;10.252;2023-12-20T12:50:50;5.70;99.90
3186;DHT22;1604;53.700;10.252;2023-12-20T12:53:53;5.70;99.90
3186;DHT22;1604;53.700;10.252;2023-12-20T12:56:55;5.70;99.90
3186;DHT22;1604;53.700;10.252;2023-12-20T12:59:58;5.70;99.90
3186;DHT22;1604;53.700;10.252;2023-12-20T13:03:02;5.70;99.90
3186;DHT22;1604;53.700;10.252;2023-12-20T13:06:04;5.70;99.90
3186;DHT22;1604;53.700;10.252;2023-12-20T13:09:09;5.80;99.90
3186;DHT22;1604;53.700;10.252;2023-12-20T13:12:12;5.80;99.90
3186;DHT22;1604;53.700;10.252;2023-12-20T13:15:14;5.90;99.90
3186;DHT22;1604;53.700;10.252;2023-12-20T13:18:18;6.00;99.90
3186;DHT22;1604;53.700;10.252;2023-12-20T13:21:20;6.10;99.90
3186;DHT22;1604;53.700;10.252;2023-12-20T13:24:22;6.10;99.90
3186;DHT22;1604;53.700;10.252;2023-12-20T13:27:24;6.20;99.90
3186;DHT22;1604;53.700;10.252;2023-12-20T13:30:26;6.10;99.90
3186;DHT22;1604;53.700;10.252;2023-12-20T13:33:29;6.20;99.90
3186;DHT22;1604;53.700;10.252;2023-12-20T13:36:31;6.20;99.90
3186;DHT22;1604;53.700;10.252;2023-12-20T13:39:33;6.20;99.90
3186;DHT22;1604;53.700;10.252;2023-12-20T13:42:35;6.20;99.90
3186;DHT22;1604;53.700;10.252;2023-12-20T13:45:37;6.20;99.90
3186;DHT22;1604;53.700;10.252;2023-12-20T13:48:40;6.20;99.90
3186;DHT22;1604;53.700;10.252;2023-12-20T13:51:42;6.20;99.90
3186;DHT22;1604;53.700;10.252;2023-12-20T13:54:44;6.20;99.90
3186;DHT22;1604;53.700;10.252;2023-12-20T13:57:46;6.20;99.90
3186;DHT22;1604;53.700;10.252;2023-12-20T14:00:48;6.20;99.90
3186;DHT22;1604;53.700;10.252;2023-12-20T14:03:52;6.20;99.90
3186;DHT22;1604;53.700;10.252;2023-12-20T14:06:54;6.20;99.90
3186;DHT22;1604;53.700;10.252;2023-12-20T14:09:56;6.10;99.90
3186;DHT22;1604;53.700;10.252;2023-12-20T14:12:59;6.10;99.90
3186;DHT22;1604;53.700;10.252;2023-12-20T14:16:01;6.10;99.90
3186;DHT22;1604;53.700;10.252;2023-12-20T14:19:05;6.00;99.90
3186;DHT22;1604;53.700;10.252;2023-12-20T14:22:09;5.90;99.90
3186;DHT22;1604;53.700;10.252;2023-12-20T14:25:12;5.80;99.90
3186;DHT22;1604;53.700;10.252;2023-12-20T14:28:14;5.80;99.90
3186;DHT22;1604;53.700;10.252;2023-12-20T14:31:16;5.80;99.90
3186;DHT22;1604;53.700;10.252;2023-12-20T14:34:19;5.80;99.90
3186;DHT22;1604;53.700;10.252;2023-12-20T14:37:21;5.70;99.90
3186;DHT22;1604;53.700;10.252;2023-12-20T14:40:23;5.70;99.90
3186;DHT22;1604;53.700;10.252;2023-12-20T14:43:26;5.60;99.90
3186;DHT22;1604;53.700;10.252;2023-12-20T14:46:28;5.60;99.90
3186;DHT22;1604;53.700;10.252;2023-12-20T14:49:31;5.60;99.90
3186;DHT22;1604;53.700;10.252;2023-12-20T14:52:33;5.60;99.90
3186;DHT22;1604;53.700;10.252;2023-12-20T14:55:35;5.60;99.90
3186;DHT22;1604;53.700;10.252;2023-12-20T14:58:38;5.60;99.90
3186;DHT22;1604;53.700;10.252;2023-12-20T15:01:40;5.50;99.90
3186;DHT22;1604;53.700;10.252;2023-12-20T15:04:43;5.50;99.90
3186;DHT22;1604;53.700;10.252;2023-12-20T15:07:45;5.50;99.90
3186;DHT22;1604;53.700;10.252;2023-12-20T15:10:48;5.50;99.90
3186;DHT22;1604;53.700;10.252;2023-12-20T15:13:51;5.50;99.90
3186;DHT22;1604;53.700;10.252;2023-12-20T15:16:56;5.40;99.90
3186;DHT22;1604;53.700;10.252;2023-12-20T15:19:59;5.30;99.90
3186;DHT22;1604;53.700;10.252;2023-12-20T15:23:01;5.30;99.90
3186;DHT22;1604;53.700;10.252;2023-12-20T15:26:07;5.30;99.90
3186;DHT22;1604;53.700;10.252;2023-12-20T15:29:09;5.20;99.90
3186;DHT22;1604;53.700;10.252;2023-12-20T15:32:13;5.10;99.90
3186;DHT22;1604;53.700;10.252;2023-12-20T15:35:16;5.10;99.90
3186;DHT22;1604;53.700;10.252;2023-12-20T15:38:18;5.00;99.90
3186;DHT22;1604;53.700;10.252;2023-12-20T15:41:20;4.90;99.90
3186;DHT22;1604;53.700;10.252;2023-12-20T15:44:24;4.90;99.90
3186;DHT22;1604;53.700;10.252;2023-12-20T15:47:26;4.90;99.90
3186;DHT22;1604;53.700;10.252;2023-12-20T15:50:29;4.80;99.90
3186;DHT22;1604;53.700;10.252;2023-12-20T15:53:31;4.80;99.90
3186;DHT22;1604;53.700;10.252;2023-12-20T15:56:37;4.80;99.90
3186;DHT22;1604;53.700;10.252;2023-12-20T15:59:41;4.90;99.90
3186;DHT22;1604;53.700;10.252;2023-12-20T16:02:43;4.90;99.90
3186;DHT22;1604;53.700;10.252;2023-12-20T16:05:46;5.00;99.90
3186;DHT22;1604;53.700;10.252;2023-12-20T16:08:48;5.00;99.90
3186;DHT22;1604;53.700;10.252;2023-12-20T16:11:50;4.90;99.90
3186;DHT22;1604;53.700;10.252;2023-12-20T16:14:52;4.90;99.90
3186;DHT22;1604;53.700;10.252;2023-12-20T16:17:54;4.80;99.90
3186;DHT22;1604;53.700;10.252;2023-12-20T16:20:57;4.90;99.90
3186;DHT22;1604;53.700;10.252;2023-12-20T16:24:01;4.80;99.90
3186;DHT22;1604;53.700;10.252;2023-12-20T16:27:04;4.80;99.90
3186;DHT22;1604;53.700;10.252;2023-12-20T16:30:07;4.80;99.90
3186;DHT22;1604;53.700;10.252;2023-12-20T16:33:09;4.90;99.90
3186;DHT22;1604;53.700;10.252;2023-12-20T16:36:12;4.90;99.90
3186;DHT22;1604;53.700;10.252;2023-12-20T16:39:14;5.00;99.90
3186;DHT22;1604;53.700;10.252;2023-12-20T16:42:20;5.00;99.90
3186;DHT22;1604;53.700;10.252;2023-12-20T16:45:22;5.00;99.90
3186;DHT22;1604;53.700;10.252;2023-12-20T16:48:25;5.00;99.90
3186;DHT22;1604;53.700;10.252;2023-12-20T16:51:28;5.00;99.90
3186;DHT22;1604;53.700;10.252;2023-12-20T16:54:30;5.00;99.90
3186;DHT22;1604;53.700;10.252;2023-12-20T16:57:32;5.00;99.90
3186;DHT22;1604;53.700;10.252;2023-12-20T17:00:34;5.00;99.90
3186;DHT22;1604;53.700;10.252;2023-12-20T17:03:35;5.00;99.90
3186;DHT22;1604;53.700;10.252;2023-12-20T17:06:39;4.90;99.90
3186;DHT22;1604;53.700;10.252;2023-12-20T17:09:43;4.90;99.90
3186;DHT22;1604;53.700;10.252;2023-12-20T17:12:45;4.80;99.90
3186;DHT22;1604;53.700;10.252;2023-12-20T17:15:47;4.80;99.90
3186;DHT22;1604;53.700;10.252;2023-12-20T17:18:49;4.80;99.90
3186;DHT22;1604;53.700;10.252;2023-12-20T17:21:52;4.70;99.90
3186;DHT22;1604;53.700;10.252;2023-12-20T17:24:54;4.70;99.90
3186;DHT22;1604;53.700;10.252;2023-12-20T17:27:56;4.70;99.90
3186;DHT22;1604;53.700;10.252;2023-12-20T17:30:58;4.80;99.90
3186;DHT22;1604;53.700;10.252;2023-12-20T17:34:01;4.70;99.90
3186;DHT22;1604;53.700;10.252;2023-12-20T17:37:04;4.70;99.90
3186;DHT22;1604;53.700;10.252;2023-12-20T17:40:07;4.60;99.90
3186;DHT22;1604;53.700;10.252;2023-12-20T17:43:09;4.50;99.90
3186;DHT22;1604;53.700;10.252;2023-12-20T17:46:11;4.40;99.90
3186;DHT22;1604;53.700;10.252;2023-12-20T17:49:13;4.40;99.90
3186;DHT22;1604;53.700;10.252;2023-12-20T17:52:16;4.40;99.90
3186;DHT22;1604;53.700;10.252;2023-12-20T17:55:18;4.40;99.90
3186;DHT22;1604;53.700;10.252;2023-12-20T17:58:20;4.40;99.90
3186;DHT22;1604;53.700;10.252;2023-12-20T18:01:22;4.30;99.90
3186;DHT22;1604;53.700;10.252;2023-12-20T18:04:24;4.30;99.90
3186;DHT22;1604;53.700;10.252;2023-12-20T18:07:28;4.40;99.90
3186;DHT22;1604;53.700;10.252;2023-12-20T18:10:29;4.30;99.90
3186;DHT22;1604;53.700;10.252;2023-12-20T18:13:31;4.40;99.90
3186;DHT22;1604;53.700;10.252;2023-12-20T18:16:33;4.30;99.90
3186;DHT22;1604;53.700;10.252;2023-12-20T18:19:40;4.30;99.90
3186;DHT22;1604;53.700;10.252;2023-12-20T18:22:43;4.30;99.90
3186;DHT22;1604;53.700;10.252;2023-12-20T18:25:45;4.30;99.90
3186;DHT22;1604;53.700;10.252;2023-12-20T18:28:47;4.30;99.90
3186;DHT22;1604;53.700;10.252;2023-12-20T18:31:49;4.40;99.90
3186;DHT22;1604;53.700;10.252;2023-12-20T18:34:54;4.40;99.90
3186;DHT22;1604;53.700;10.252;2023-12-20T18:37:57;4.40;99.90
3186;DHT22;1604;53.700;10.252;2023-12-20T18:40:59;4.40;99.90
3186;DHT22;1604;53.700;10.252;2023-12-20T18:44:01;4.50;99.90
3186;DHT22;1604;53.700;10.252;2023-12-20T18:47:10;4.50;99.90
3186;DHT22;1604;53.700;10.252;2023-12-20T18:50:12;4.50;99.90
3186;DHT22;1604;53.700;10.252;2023-12-20T18:53:17;4.50;99.90
3186;DHT22;1604;53.700;10.252;2023-12-20T18:56:19;4.50;99.90
3186;DHT22;1604;53.700;10.252;2023-12-20T18:59:21;4.50;99.90
3186;DHT22;1604;53.700;10.252;2023-12-20T19:02:24;4.60;99.90
3186;DHT22;1604;53.700;10.252;2023-12-20T19:05:26;4.60;99.90
3186;DHT22;1604;53.700;10.252;2023-12-20T19:08:30;4.70;99.90
3186;DHT22;1604;53.700;10.252;2023-12-20T19:11:41;4.70;99.90
3186;DHT22;1604;53.700;10.252;2023-12-20T19:14:43;4.80;99.90
3186;DHT22;1604;53.700;10.252;2023-12-20T19:17:45;4.90;99.90
3186;DHT22;1604;53.700;10.252;2023-12-20T19:20:47;4.80;99.90
3186;DHT22;1604;53.700;10.252;2023-12-20T19:23:50;4.80;99.90
3186;DHT22;1604;53.700;10.252;2023-12-20T19:26:54;4.90;99.90
3186;DHT22;1604;53.700;10.252;2023-12-20T19:29:57;4.90;99.90
3186;DHT22;1604;53.700;10.252;2023-12-20T19:33:00;4.90;99.90
3186;DHT22;1604;53.700;10.252;2023-12-20T19:36:02;4.90;99.90
3186;DHT22;1604;53.700;10.252;2023-12-20T19:39:06;4.90;99.90
3186;DHT22;1604;53.700;10.252;2023-12-20T19:42:08;4.90;99.90
3186;DHT22;1604;53.700;10.252;2023-12-20T19:45:10;4.90;99.90
3186;DHT22;1604;53.700;10.252;2023-12-20T19:48:13;4.90;99.90
3186;DHT22;1604;53.700;10.252;2023-12-20T19:51:16;4.90;99.90